Search for airport 
image banner adimage banner adimage banner ad
image banner ad

KAJO - Corona Muni

Located in Corona, United States

ICAO - AJO, IATA -

Data provided by Airmate  

General information

Coordinates: N33°53'52" W117°36'9"
Elevation is 533 feet MSL.
Magnetic variation is 14° East
View others Airports in California

Operational data

Special qualification required
Current time UTC:
Current local time:
Weather
METAR: KAJO 150956Z AUTO 00000KT 10SM CLR 16/13 A2987 RMK AO2 SLP106 T01610133
View NOTAMs / SUP AIP / TFR affecting this airport [VIEW]
Communications frequencies: [VIEW]

Runways:

RWY identifierQFULength (ft)Width (ft)SurfaceLDA (ft)
0789°320060ASPH
25269°320060ASPH

Airport contact information

Address: Corona United States

Other aviation service providers

Flight schools

Flying Academy

Flying Academy

Satellite view of KAJO